Terminal Aerodrome Forecast
Issued by NWS Cleveland, OH

Home | Current Version | Previous Version | Text Only | Print | Product List | Glossary On
Versions: 1 2 3 4 5 6 7 8 9 10 11 12 13 14 15 16 17 18
613
FTUS41 KCLE 042337
TAFCAK
TAF
KCAK 042337Z 0500/0524 27007KT 6SM -SHRA BR OVC050
     FM050300 35004KT 3SM -SHRA BR SCT015 OVC025
     FM050600 02006KT 3SM BR SCT008 OVC012
      TEMPO 0508/0512 2SM BR OVC008
     FM051600 02012KT P6SM SCT008 OVC012
     FM052100 02014G22KT P6SM OVC025=

USA.gov is the U.S. government's official web portal to all federal, state and local government web resources and services.